Bindloss, Canada
Current Conditions -  °F | °C
As of 8:00 PM on Sunday 21 Dec 2014 (Local Time) from CYXH Reporting Station
Overcast Overcast  
Wind Chill: 25°   Ceiling: 12000
Heat Index: 34°   Visibility: 15mi
Dew Point: 30°   Wind: 13mph
Humidity: 87%   Direction: 290°WNW
Pressure: 29.58"   Gusts: NA
Location:  50.88°N, 110.27°W
Report Text: CYXH 220300Z 29011KT 15SM OVC120 01/M01 A2958 RMK AC8 LAST STFD OBS/NEXT 221300Z SLP037
Loading
Personal Weather Stations






























Interactive Weather Map New forecast layout! Learn more

10-Day Weather Forecast

Advertisements
Track Severe Weather on mobile